sensor_id;sensor_type;location;lat;lon;timestamp;P1;durP1;ratioP1;P2;durP2;ratioP2
33672;SDS011;20011;51.510;9.942;2023-08-06T00:01:15;3.17;;;2.13;;
33672;SDS011;20011;51.510;9.942;2023-08-06T00:03:42;2.47;;;2.28;;
33672;SDS011;20011;51.510;9.942;2023-08-06T00:06:09;5.20;;;2.55;;
33672;SDS011;20011;51.510;9.942;2023-08-06T00:08:36;3.30;;;2.45;;
33672;SDS011;20011;51.510;9.942;2023-08-06T00:11:03;3.30;;;2.40;;
33672;SDS011;20011;51.510;9.942;2023-08-06T00:13:30;4.72;;;2.80;;
33672;SDS011;20011;51.510;9.942;2023-08-06T00:16:07;3.72;;;2.45;;
33672;SDS011;20011;51.510;9.942;2023-08-06T00:18:35;3.80;;;2.85;;
33672;SDS011;20011;51.510;9.942;2023-08-06T00:21:02;7.38;;;3.03;;
33672;SDS011;20011;51.510;9.942;2023-08-06T00:23:29;3.00;;;2.58;;
33672;SDS011;20011;51.510;9.942;2023-08-06T00:25:56;5.72;;;2.88;;
33672;SDS011;20011;51.510;9.942;2023-08-06T00:28:23;5.15;;;2.97;;
33672;SDS011;20011;51.510;9.942;2023-08-06T00:30:54;5.65;;;2.97;;
33672;SDS011;20011;51.510;9.942;2023-08-06T00:33:22;4.47;;;2.97;;
33672;SDS011;20011;51.510;9.942;2023-08-06T00:35:50;4.78;;;2.78;;
33672;SDS011;20011;51.510;9.942;2023-08-06T00:38:17;4.93;;;2.58;;
33672;SDS011;20011;51.510;9.942;2023-08-06T00:40:44;3.92;;;2.70;;
33672;SDS011;20011;51.510;9.942;2023-08-06T00:43:11;6.43;;;2.90;;
33672;SDS011;20011;51.510;9.942;2023-08-06T00:45:38;3.58;;;2.47;;
33672;SDS011;20011;51.510;9.942;2023-08-06T00:48:05;3.95;;;2.47;;
33672;SDS011;20011;51.510;9.942;2023-08-06T00:50:33;3.97;;;2.70;;
33672;SDS011;20011;51.510;9.942;2023-08-06T00:53:00;3.90;;;2.47;;
33672;SDS011;20011;51.510;9.942;2023-08-06T00:55:28;4.35;;;2.15;;
33672;SDS011;20011;51.510;9.942;2023-08-06T00:57:55;4.72;;;2.33;;
33672;SDS011;20011;51.510;9.942;2023-08-06T01:00:23;3.53;;;1.92;;
33672;SDS011;20011;51.510;9.942;2023-08-06T01:02:51;4.22;;;2.10;;
33672;SDS011;20011;51.510;9.942;2023-08-06T01:05:20;3.28;;;2.13;;
33672;SDS011;20011;51.510;9.942;2023-08-06T01:08:50;3.20;;;2.00;;
33672;SDS011;20011;51.510;9.942;2023-08-06T01:14:06;2.00;;;1.50;;
33672;SDS011;20011;51.510;9.942;2023-08-06T01:16:41;3.15;;;1.52;;
33672;SDS011;20011;51.510;9.942;2023-08-06T01:19:17;6.60;;;2.03;;
33672;SDS011;20011;51.510;9.942;2023-08-06T01:21:45;3.10;;;1.55;;
33672;SDS011;20011;51.510;9.942;2023-08-06T01:24:12;3.55;;;1.95;;
33672;SDS011;20011;51.510;9.942;2023-08-06T01:26:44;2.17;;;1.70;;
33672;SDS011;20011;51.510;9.942;2023-08-06T01:29:19;3.03;;;1.77;;
33672;SDS011;20011;51.510;9.942;2023-08-06T01:32:01;2.63;;;1.55;;
33672;SDS011;20011;51.510;9.942;2023-08-06T01:34:31;11.45;;;1.60;;
33672;SDS011;20011;51.510;9.942;2023-08-06T01:37:00;3.45;;;1.45;;
33672;SDS011;20011;51.510;9.942;2023-08-06T01:39:27;2.17;;;1.33;;
33672;SDS011;20011;51.510;9.942;2023-08-06T01:41:54;2.13;;;1.45;;
33672;SDS011;20011;51.510;9.942;2023-08-06T01:44:21;2.35;;;1.60;;
33672;SDS011;20011;51.510;9.942;2023-08-06T01:46:48;1.40;;;1.30;;
33672;SDS011;20011;51.510;9.942;2023-08-06T01:49:15;2.40;;;1.33;;
33672;SDS011;20011;51.510;9.942;2023-08-06T01:51:42;2.78;;;1.50;;
33672;SDS011;20011;51.510;9.942;2023-08-06T01:54:09;4.60;;;1.52;;
33672;SDS011;20011;51.510;9.942;2023-08-06T01:56:37;4.53;;;1.50;;
33672;SDS011;20011;51.510;9.942;2023-08-06T01:59:04;1.60;;;1.38;;
33672;SDS011;20011;51.510;9.942;2023-08-06T02:01:31;4.78;;;1.30;;
33672;SDS011;20011;51.510;9.942;2023-08-06T02:03:58;4.18;;;1.50;;
33672;SDS011;20011;51.510;9.942;2023-08-06T02:06:25;6.38;;;1.70;;
33672;SDS011;20011;51.510;9.942;2023-08-06T02:08:52;2.00;;;1.30;;
33672;SDS011;20011;51.510;9.942;2023-08-06T02:11:19;6.82;;;1.55;;
33672;SDS011;20011;51.510;9.942;2023-08-06T02:13:46;6.57;;;1.70;;
33672;SDS011;20011;51.510;9.942;2023-08-06T02:16:17;2.78;;;1.90;;
33672;SDS011;20011;51.510;9.942;2023-08-06T02:18:44;1.60;;;1.50;;
33672;SDS011;20011;51.510;9.942;2023-08-06T02:21:11;6.68;;;1.30;;
33672;SDS011;20011;51.510;9.942;2023-08-06T02:23:38;6.45;;;1.52;;
33672;SDS011;20011;51.510;9.942;2023-08-06T02:26:05;2.72;;;1.48;;
33672;SDS011;20011;51.510;9.942;2023-08-06T02:28:32;5.28;;;1.30;;
33672;SDS011;20011;51.510;9.942;2023-08-06T02:30:59;2.85;;;1.40;;
33672;SDS011;20011;51.510;9.942;2023-08-06T02:33:27;1.48;;;1.38;;
33672;SDS011;20011;51.510;9.942;2023-08-06T02:36:01;1.52;;;1.40;;
33672;SDS011;20011;51.510;9.942;2023-08-06T02:38:30;4.30;;;1.50;;
33672;SDS011;20011;51.510;9.942;2023-08-06T02:40:58;4.65;;;1.50;;
33672;SDS011;20011;51.510;9.942;2023-08-06T02:43:25;3.20;;;1.50;;
33672;SDS011;20011;51.510;9.942;2023-08-06T02:45:56;4.60;;;1.58;;
33672;SDS011;20011;51.510;9.942;2023-08-06T02:48:24;2.25;;;1.48;;
33672;SDS011;20011;51.510;9.942;2023-08-06T02:50:52;4.10;;;1.50;;
33672;SDS011;20011;51.510;9.942;2023-08-06T02:53:19;5.22;;;1.55;;
33672;SDS011;20011;51.510;9.942;2023-08-06T02:55:48;3.97;;;1.50;;
33672;SDS011;20011;51.510;9.942;2023-08-06T03:01:02;3.63;;;1.40;;
33672;SDS011;20011;51.510;9.942;2023-08-06T03:03:37;4.85;;;1.70;;
33672;SDS011;20011;51.510;9.942;2023-08-06T03:06:05;3.72;;;1.90;;
33672;SDS011;20011;51.510;9.942;2023-08-06T03:08:44;2.08;;;1.40;;
33672;SDS011;20011;51.510;9.942;2023-08-06T03:11:11;1.58;;;1.33;;
33672;SDS011;20011;51.510;9.942;2023-08-06T03:13:39;2.45;;;1.58;;
33672;SDS011;20011;51.510;9.942;2023-08-06T03:16:07;3.60;;;1.70;;
33672;SDS011;20011;51.510;9.942;2023-08-06T03:18:34;3.28;;;1.63;;
33672;SDS011;20011;51.510;9.942;2023-08-06T03:21:04;2.38;;;1.40;;
33672;SDS011;20011;51.510;9.942;2023-08-06T03:23:31;5.03;;;1.40;;
33672;SDS011;20011;51.510;9.942;2023-08-06T03:26:03;6.65;;;2.17;;
33672;SDS011;20011;51.510;9.942;2023-08-06T03:28:31;1.90;;;1.60;;
33672;SDS011;20011;51.510;9.942;2023-08-06T03:31:00;2.50;;;1.50;;
33672;SDS011;20011;51.510;9.942;2023-08-06T03:33:38;6.22;;;1.65;;
33672;SDS011;20011;51.510;9.942;2023-08-06T03:36:10;2.17;;;1.35;;
33672;SDS011;20011;51.510;9.942;2023-08-06T03:38:37;4.20;;;1.48;;
33672;SDS011;20011;51.510;9.942;2023-08-06T03:41:06;3.30;;;1.42;;
33672;SDS011;20011;51.510;9.942;2023-08-06T03:43:33;5.30;;;1.60;;
33672;SDS011;20011;51.510;9.942;2023-08-06T03:46:05;2.53;;;1.65;;
33672;SDS011;20011;51.510;9.942;2023-08-06T03:48:32;1.27;;;1.17;;
33672;SDS011;20011;51.510;9.942;2023-08-06T03:51:00;8.70;;;1.65;;
33672;SDS011;20011;51.510;9.942;2023-08-06T03:53:28;6.20;;;1.77;;
33672;SDS011;20011;51.510;9.942;2023-08-06T03:55:55;3.13;;;1.20;;
33672;SDS011;20011;51.510;9.942;2023-08-06T03:58:26;5.05;;;1.50;;
33672;SDS011;20011;51.510;9.942;2023-08-06T04:00:59;1.55;;;1.30;;
33672;SDS011;20011;51.510;9.942;2023-08-06T04:03:33;2.35;;;1.75;;
33672;SDS011;20011;51.510;9.942;2023-08-06T04:06:02;8.43;;;1.98;;
33672;SDS011;20011;51.510;9.942;2023-08-06T04:08:29;1.88;;;1.50;;
33672;SDS011;20011;51.510;9.942;2023-08-06T04:10:56;3.53;;;1.45;;
33672;SDS011;20011;51.510;9.942;2023-08-06T04:13:23;3.92;;;1.30;;
33672;SDS011;20011;51.510;9.942;2023-08-06T04:15:50;5.35;;;1.40;;
33672;SDS011;20011;51.510;9.942;2023-08-06T04:18:18;3.55;;;1.38;;
33672;SDS011;20011;51.510;9.942;2023-08-06T04:20:45;1.45;;;1.35;;
33672;SDS011;20011;51.510;9.942;2023-08-06T04:23:13;4.60;;;1.48;;
33672;SDS011;20011;51.510;9.942;2023-08-06T04:25:41;4.70;;;1.30;;
33672;SDS011;20011;51.510;9.942;2023-08-06T04:28:08;7.20;;;1.52;;
33672;SDS011;20011;51.510;9.942;2023-08-06T04:30:36;5.07;;;1.77;;
33672;SDS011;20011;51.510;9.942;2023-08-06T04:33:03;1.77;;;1.45;;
33672;SDS011;20011;51.510;9.942;2023-08-06T04:35:32;1.50;;;1.40;;
33672;SDS011;20011;51.510;9.942;2023-08-06T04:38:00;2.17;;;1.50;;
33672;SDS011;20011;51.510;9.942;2023-08-06T04:40:27;9.95;;;2.17;;
33672;SDS011;20011;51.510;9.942;2023-08-06T04:42:54;2.35;;;1.77;;
33672;SDS011;20011;51.510;9.942;2023-08-06T04:45:21;3.05;;;1.58;;
33672;SDS011;20011;51.510;9.942;2023-08-06T04:47:50;3.70;;;1.38;;
33672;SDS011;20011;51.510;9.942;2023-08-06T04:50:18;1.80;;;1.30;;
33672;SDS011;20011;51.510;9.942;2023-08-06T04:52:45;2.38;;;1.80;;
33672;SDS011;20011;51.510;9.942;2023-08-06T04:55:12;3.88;;;1.50;;
33672;SDS011;20011;51.510;9.942;2023-08-06T04:57:39;1.48;;;1.30;;
33672;SDS011;20011;51.510;9.942;2023-08-06T05:00:06;1.25;;;1.00;;
33672;SDS011;20011;51.510;9.942;2023-08-06T05:02:33;7.00;;;1.90;;
33672;SDS011;20011;51.510;9.942;2023-08-06T05:05:01;5.15;;;1.40;;
33672;SDS011;20011;51.510;9.942;2023-08-06T05:07:28;4.30;;;1.67;;
33672;SDS011;20011;51.510;9.942;2023-08-06T05:09:55;2.08;;;1.35;;
33672;SDS011;20011;51.510;9.942;2023-08-06T05:12:21;2.13;;;1.92;;
33672;SDS011;20011;51.510;9.942;2023-08-06T05:14:48;2.97;;;1.55;;
33672;SDS011;20011;51.510;9.942;2023-08-06T05:17:15;1.73;;;1.60;;
33672;SDS011;20011;51.510;9.942;2023-08-06T05:19:42;4.15;;;1.80;;
33672;SDS011;20011;51.510;9.942;2023-08-06T05:22:09;3.55;;;1.35;;
33672;SDS011;20011;51.510;9.942;2023-08-06T05:24:36;6.25;;;1.63;;
33672;SDS011;20011;51.510;9.942;2023-08-06T05:27:03;4.75;;;1.90;;
33672;SDS011;20011;51.510;9.942;2023-08-06T05:29:30;4.03;;;1.67;;
33672;SDS011;20011;51.510;9.942;2023-08-06T05:31:57;4.38;;;1.83;;
33672;SDS011;20011;51.510;9.942;2023-08-06T05:34:24;5.30;;;1.42;;
33672;SDS011;20011;51.510;9.942;2023-08-06T05:36:51;1.50;;;1.40;;
33672;SDS011;20011;51.510;9.942;2023-08-06T05:39:19;1.80;;;1.70;;
33672;SDS011;20011;51.510;9.942;2023-08-06T05:41:46;4.40;;;1.40;;
33672;SDS011;20011;51.510;9.942;2023-08-06T05:44:12;2.40;;;1.40;;
33672;SDS011;20011;51.510;9.942;2023-08-06T05:46:39;1.60;;;1.30;;
33672;SDS011;20011;51.510;9.942;2023-08-06T05:49:06;2.83;;;1.63;;
33672;SDS011;20011;51.510;9.942;2023-08-06T05:51:33;2.05;;;1.40;;
33672;SDS011;20011;51.510;9.942;2023-08-06T05:54:00;5.38;;;1.83;;
33672;SDS011;20011;51.510;9.942;2023-08-06T05:56:27;3.90;;;1.70;;
33672;SDS011;20011;51.510;9.942;2023-08-06T05:58:54;3.67;;;1.30;;
33672;SDS011;20011;51.510;9.942;2023-08-06T06:07:27;1.50;;;1.40;;
33672;SDS011;20011;51.510;9.942;2023-08-06T06:09:54;2.70;;;1.80;;
33672;SDS011;20011;51.510;9.942;2023-08-06T06:12:21;4.72;;;1.67;;
33672;SDS011;20011;51.510;9.942;2023-08-06T06:14:48;1.55;;;1.45;;
33672;SDS011;20011;51.510;9.942;2023-08-06T06:17:15;2.92;;;1.80;;
33672;SDS011;20011;51.510;9.942;2023-08-06T06:19:42;2.50;;;1.50;;
33672;SDS011;20011;51.510;9.942;2023-08-06T06:22:09;5.57;;;1.92;;
33672;SDS011;20011;51.510;9.942;2023-08-06T06:24:36;3.03;;;1.88;;
33672;SDS011;20011;51.510;9.942;2023-08-06T06:27:03;3.47;;;2.15;;
33672;SDS011;20011;51.510;9.942;2023-08-06T06:29:30;2.17;;;1.83;;
33672;SDS011;20011;51.510;9.942;2023-08-06T06:31:57;5.45;;;1.83;;
33672;SDS011;20011;51.510;9.942;2023-08-06T06:34:24;3.75;;;2.15;;
33672;SDS011;20011;51.510;9.942;2023-08-06T06:36:51;2.75;;;1.90;;
33672;SDS011;20011;51.510;9.942;2023-08-06T06:39:18;2.13;;;1.92;;
33672;SDS011;20011;51.510;9.942;2023-08-06T06:41:45;5.00;;;2.17;;
33672;SDS011;20011;51.510;9.942;2023-08-06T06:44:22;3.22;;;1.90;;
33672;SDS011;20011;51.510;9.942;2023-08-06T06:46:49;5.60;;;2.17;;
33672;SDS011;20011;51.510;9.942;2023-08-06T06:49:16;2.25;;;1.83;;
33672;SDS011;20011;51.510;9.942;2023-08-06T06:51:43;3.00;;;2.00;;
33672;SDS011;20011;51.510;9.942;2023-08-06T06:54:09;3.63;;;1.67;;
33672;SDS011;20011;51.510;9.942;2023-08-06T06:56:37;4.30;;;1.90;;
33672;SDS011;20011;51.510;9.942;2023-08-06T06:59:04;2.55;;;1.80;;
33672;SDS011;20011;51.510;9.942;2023-08-06T07:01:31;6.90;;;2.33;;
33672;SDS011;20011;51.510;9.942;2023-08-06T07:03:59;3.63;;;1.80;;
33672;SDS011;20011;51.510;9.942;2023-08-06T07:06:31;3.55;;;2.20;;
33672;SDS011;20011;51.510;9.942;2023-08-06T07:08:58;2.33;;;1.50;;
33672;SDS011;20011;51.510;9.942;2023-08-06T07:11:25;3.00;;;2.08;;
33672;SDS011;20011;51.510;9.942;2023-08-06T07:13:58;2.10;;;1.88;;
33672;SDS011;20011;51.510;9.942;2023-08-06T07:16:25;3.17;;;2.00;;
33672;SDS011;20011;51.510;9.942;2023-08-06T07:18:53;2.20;;;1.92;;
33672;SDS011;20011;51.510;9.942;2023-08-06T07:21:21;3.13;;;2.03;;
33672;SDS011;20011;51.510;9.942;2023-08-06T07:23:48;3.97;;;2.03;;
33672;SDS011;20011;51.510;9.942;2023-08-06T07:26:18;5.35;;;2.58;;
33672;SDS011;20011;51.510;9.942;2023-08-06T07:28:45;1.90;;;1.77;;
33672;SDS011;20011;51.510;9.942;2023-08-06T07:31:11;3.50;;;2.10;;
33672;SDS011;20011;51.510;9.942;2023-08-06T07:33:38;2.50;;;1.88;;
33672;SDS011;20011;51.510;9.942;2023-08-06T07:36:10;3.25;;;2.10;;
33672;SDS011;20011;51.510;9.942;2023-08-06T07:38:38;4.53;;;2.13;;
33672;SDS011;20011;51.510;9.942;2023-08-06T07:41:05;6.65;;;2.03;;
33672;SDS011;20011;51.510;9.942;2023-08-06T07:43:32;3.90;;;1.83;;
33672;SDS011;20011;51.510;9.942;2023-08-06T07:45:59;2.13;;;1.88;;
33672;SDS011;20011;51.510;9.942;2023-08-06T07:48:27;3.58;;;1.98;;
33672;SDS011;20011;51.510;9.942;2023-08-06T07:50:54;2.28;;;1.63;;
33672;SDS011;20011;51.510;9.942;2023-08-06T07:53:22;3.22;;;1.83;;
33672;SDS011;20011;51.510;9.942;2023-08-06T07:55:50;2.80;;;1.60;;
33672;SDS011;20011;51.510;9.942;2023-08-06T07:58:18;3.22;;;2.00;;
33672;SDS011;20011;51.510;9.942;2023-08-06T08:00:45;6.43;;;1.92;;
33672;SDS011;20011;51.510;9.942;2023-08-06T08:03:14;3.65;;;1.80;;
33672;SDS011;20011;51.510;9.942;2023-08-06T08:05:42;4.63;;;2.10;;
33672;SDS011;20011;51.510;9.942;2023-08-06T08:08:09;6.30;;;2.25;;
33672;SDS011;20011;51.510;9.942;2023-08-06T08:10:36;3.67;;;2.17;;
33672;SDS011;20011;51.510;9.942;2023-08-06T08:13:05;1.88;;;1.55;;
33672;SDS011;20011;51.510;9.942;2023-08-06T08:15:32;2.92;;;1.90;;
33672;SDS011;20011;51.510;9.942;2023-08-06T08:18:00;2.67;;;1.80;;
33672;SDS011;20011;51.510;9.942;2023-08-06T08:20:27;4.00;;;1.65;;
33672;SDS011;20011;51.510;9.942;2023-08-06T08:22:58;9.23;;;2.78;;
33672;SDS011;20011;51.510;9.942;2023-08-06T08:25:26;3.30;;;1.67;;
33672;SDS011;20011;51.510;9.942;2023-08-06T08:27:57;2.13;;;1.75;;
33672;SDS011;20011;51.510;9.942;2023-08-06T08:30:24;2.72;;;2.05;;
33672;SDS011;20011;51.510;9.942;2023-08-06T08:32:52;4.00;;;1.60;;
33672;SDS011;20011;51.510;9.942;2023-08-06T08:35:19;4.82;;;1.90;;
33672;SDS011;20011;51.510;9.942;2023-08-06T08:37:46;4.40;;;1.60;;
33672;SDS011;20011;51.510;9.942;2023-08-06T08:40:13;1.73;;;1.50;;
33672;SDS011;20011;51.510;9.942;2023-08-06T08:42:41;2.25;;;1.60;;
33672;SDS011;20011;51.510;9.942;2023-08-06T08:45:12;5.38;;;1.48;;
33672;SDS011;20011;51.510;9.942;2023-08-06T08:47:43;2.33;;;1.55;;
33672;SDS011;20011;51.510;9.942;2023-08-06T08:50:11;3.83;;;1.73;;
33672;SDS011;20011;51.510;9.942;2023-08-06T08:52:38;3.05;;;1.73;;
33672;SDS011;20011;51.510;9.942;2023-08-06T08:55:09;4.70;;;1.70;;
33672;SDS011;20011;51.510;9.942;2023-08-06T09:00:03;2.05;;;1.60;;
33672;SDS011;20011;51.510;9.942;2023-08-06T09:02:32;2.33;;;1.58;;
33672;SDS011;20011;51.510;9.942;2023-08-06T09:05:00;5.95;;;1.83;;
33672;SDS011;20011;51.510;9.942;2023-08-06T09:07:32;4.82;;;2.22;;
33672;SDS011;20011;51.510;9.942;2023-08-06T09:10:02;3.40;;;1.55;;
33672;SDS011;20011;51.510;9.942;2023-08-06T09:12:31;3.05;;;1.80;;
33672;SDS011;20011;51.510;9.942;2023-08-06T09:14:58;2.42;;;1.30;;
33672;SDS011;20011;51.510;9.942;2023-08-06T09:17:25;4.45;;;2.15;;
33672;SDS011;20011;51.510;9.942;2023-08-06T09:19:52;5.65;;;1.75;;
33672;SDS011;20011;51.510;9.942;2023-08-06T09:22:19;2.10;;;1.40;;
33672;SDS011;20011;51.510;9.942;2023-08-06T09:24:46;4.53;;;1.50;;
33672;SDS011;20011;51.510;9.942;2023-08-06T09:27:13;4.40;;;1.25;;
33672;SDS011;20011;51.510;9.942;2023-08-06T09:29:41;1.95;;;1.40;;
33672;SDS011;20011;51.510;9.942;2023-08-06T09:32:09;2.83;;;1.23;;
33672;SDS011;20011;51.510;9.942;2023-08-06T09:34:38;3.97;;;2.53;;
33672;SDS011;20011;51.510;9.942;2023-08-06T09:37:08;4.45;;;1.77;;
33672;SDS011;20011;51.510;9.942;2023-08-06T09:39:38;4.85;;;1.42;;
33672;SDS011;20011;51.510;9.942;2023-08-06T09:42:06;3.40;;;1.47;;
33672;SDS011;20011;51.510;9.942;2023-08-06T09:44:33;2.50;;;1.60;;
33672;SDS011;20011;51.510;9.942;2023-08-06T09:47:02;3.28;;;1.50;;
33672;SDS011;20011;51.510;9.942;2023-08-06T09:52:00;2.42;;;1.50;;
33672;SDS011;20011;51.510;9.942;2023-08-06T09:54:27;2.55;;;1.48;;
33672;SDS011;20011;51.510;9.942;2023-08-06T09:56:56;7.95;;;1.77;;
33672;SDS011;20011;51.510;9.942;2023-08-06T09:59:23;3.03;;;1.52;;
33672;SDS011;20011;51.510;9.942;2023-08-06T10:01:51;4.15;;;1.63;;
33672;SDS011;20011;51.510;9.942;2023-08-06T10:04:22;1.98;;;1.17;;
33672;SDS011;20011;51.510;9.942;2023-08-06T10:06:54;1.42;;;1.23;;
33672;SDS011;20011;51.510;9.942;2023-08-06T10:09:21;2.40;;;1.40;;
33672;SDS011;20011;51.510;9.942;2023-08-06T10:11:49;2.80;;;1.30;;
33672;SDS011;20011;51.510;9.942;2023-08-06T10:14:51;2.72;;;1.42;;
33672;SDS011;20011;51.510;9.942;2023-08-06T10:17:12;2.40;;;1.15;;
33672;SDS011;20011;51.510;9.942;2023-08-06T10:19:39;3.00;;;1.40;;
33672;SDS011;20011;51.510;9.942;2023-08-06T10:22:13;2.60;;;1.23;;
33672;SDS011;20011;51.510;9.942;2023-08-06T10:24:54;3.88;;;1.60;;
33672;SDS011;20011;51.510;9.942;2023-08-06T10:30:22;2.42;;;1.52;;
33672;SDS011;20011;51.510;9.942;2023-08-06T10:32:50;3.67;;;1.98;;
33672;SDS011;20011;51.510;9.942;2023-08-06T10:35:37;3.38;;;1.92;;
33672;SDS011;20011;51.510;9.942;2023-08-06T10:40:36;1.73;;;1.48;;
33672;SDS011;20011;51.510;9.942;2023-08-06T10:43:05;3.00;;;1.48;;
33672;SDS011;20011;51.510;9.942;2023-08-06T10:45:35;4.95;;;1.38;;
33672;SDS011;20011;51.510;9.942;2023-08-06T10:48:03;3.97;;;1.60;;
33672;SDS011;20011;51.510;9.942;2023-08-06T10:50:31;1.95;;;1.52;;
33672;SDS011;20011;51.510;9.942;2023-08-06T10:53:00;3.15;;;1.33;;
33672;SDS011;20011;51.510;9.942;2023-08-06T10:55:32;3.85;;;1.35;;
33672;SDS011;20011;51.510;9.942;2023-08-06T10:57:59;3.30;;;1.50;;
33672;SDS011;20011;51.510;9.942;2023-08-06T11:00:26;2.80;;;1.80;;
33672;SDS011;20011;51.510;9.942;2023-08-06T11:02:53;2.42;;;1.60;;
33672;SDS011;20011;51.510;9.942;2023-08-06T11:05:21;4.35;;;1.55;;
33672;SDS011;20011;51.510;9.942;2023-08-06T11:07:48;3.67;;;1.88;;
33672;SDS011;20011;51.510;9.942;2023-08-06T11:10:17;4.70;;;1.85;;
33672;SDS011;20011;51.510;9.942;2023-08-06T11:12:44;3.78;;;1.25;;
33672;SDS011;20011;51.510;9.942;2023-08-06T11:15:11;2.67;;;1.33;;
33672;SDS011;20011;51.510;9.942;2023-08-06T11:17:39;4.38;;;1.40;;
33672;SDS011;20011;51.510;9.942;2023-08-06T11:20:08;4.45;;;1.67;;
33672;SDS011;20011;51.510;9.942;2023-08-06T11:22:36;2.22;;;1.40;;
33672;SDS011;20011;51.510;9.942;2023-08-06T11:25:04;2.97;;;1.40;;
33672;SDS011;20011;51.510;9.942;2023-08-06T11:27:32;2.67;;;1.80;;
33672;SDS011;20011;51.510;9.942;2023-08-06T11:30:00;2.95;;;1.35;;
33672;SDS011;20011;51.510;9.942;2023-08-06T11:32:27;4.07;;;1.58;;
33672;SDS011;20011;51.510;9.942;2023-08-06T11:34:55;3.03;;;1.45;;
33672;SDS011;20011;51.510;9.942;2023-08-06T11:37:23;2.60;;;1.50;;
33672;SDS011;20011;51.510;9.942;2023-08-06T11:39:51;8.30;;;1.40;;
33672;SDS011;20011;51.510;9.942;2023-08-06T11:42:19;4.43;;;1.48;;
33672;SDS011;20011;51.510;9.942;2023-08-06T11:44:46;4.45;;;1.42;;
33672;SDS011;20011;51.510;9.942;2023-08-06T11:47:15;2.05;;;1.60;;
33672;SDS011;20011;51.510;9.942;2023-08-06T11:49:45;1.98;;;1.63;;
33672;SDS011;20011;51.510;9.942;2023-08-06T11:54:42;4.22;;;1.52;;
33672;SDS011;20011;51.510;9.942;2023-08-06T11:57:10;2.00;;;1.52;;
33672;SDS011;20011;51.510;9.942;2023-08-06T11:59:38;1.80;;;1.40;;
33672;SDS011;20011;51.510;9.942;2023-08-06T12:02:07;6.30;;;1.35;;
33672;SDS011;20011;51.510;9.942;2023-08-06T12:07:28;3.88;;;1.50;;
33672;SDS011;20011;51.510;9.942;2023-08-06T12:09:56;1.95;;;1.25;;
33672;SDS011;20011;51.510;9.942;2023-08-06T12:12:24;1.90;;;1.20;;
33672;SDS011;20011;51.510;9.942;2023-08-06T12:14:51;3.05;;;1.40;;
33672;SDS011;20011;51.510;9.942;2023-08-06T12:17:18;3.35;;;1.58;;
33672;SDS011;20011;51.510;9.942;2023-08-06T12:19:45;1.20;;;1.10;;
33672;SDS011;20011;51.510;9.942;2023-08-06T12:22:14;3.85;;;1.73;;
33672;SDS011;20011;51.510;9.942;2023-08-06T12:24:45;4.68;;;1.40;;
33672;SDS011;20011;51.510;9.942;2023-08-06T12:27:13;2.25;;;1.35;;
33672;SDS011;20011;51.510;9.942;2023-08-06T12:29:41;1.55;;;1.17;;
33672;SDS011;20011;51.510;9.942;2023-08-06T12:32:10;2.75;;;1.33;;
33672;SDS011;20011;51.510;9.942;2023-08-06T12:34:38;4.50;;;1.50;;
33672;SDS011;20011;51.510;9.942;2023-08-06T12:39:45;3.83;;;1.50;;
33672;SDS011;20011;51.510;9.942;2023-08-06T12:42:12;3.55;;;1.40;;
33672;SDS011;20011;51.510;9.942;2023-08-06T12:44:39;2.97;;;1.30;;
33672;SDS011;20011;51.510;9.942;2023-08-06T12:47:09;3.60;;;1.38;;
33672;SDS011;20011;51.510;9.942;2023-08-06T12:49:36;3.08;;;1.73;;
33672;SDS011;20011;51.510;9.942;2023-08-06T12:52:03;4.47;;;1.55;;
33672;SDS011;20011;51.510;9.942;2023-08-06T12:54:32;1.25;;;1.15;;
33672;SDS011;20011;51.510;9.942;2023-08-06T12:57:05;3.25;;;1.50;;
33672;SDS011;20011;51.510;9.942;2023-08-06T12:59:32;1.42;;;1.15;;
33672;SDS011;20011;51.510;9.942;2023-08-06T13:02:00;3.70;;;2.25;;
33672;SDS011;20011;51.510;9.942;2023-08-06T13:04:27;4.05;;;1.42;;
33672;SDS011;20011;51.510;9.942;2023-08-06T13:06:54;4.78;;;1.20;;
33672;SDS011;20011;51.510;9.942;2023-08-06T13:09:21;3.65;;;1.50;;
33672;SDS011;20011;51.510;9.942;2023-08-06T13:11:48;2.92;;;1.30;;
33672;SDS011;20011;51.510;9.942;2023-08-06T13:14:16;1.73;;;1.30;;
33672;SDS011;20011;51.510;9.942;2023-08-06T13:16:44;3.17;;;1.40;;
33672;SDS011;20011;51.510;9.942;2023-08-06T13:19:11;1.88;;;1.00;;
33672;SDS011;20011;51.510;9.942;2023-08-06T13:24:08;1.67;;;1.23;;
33672;SDS011;20011;51.510;9.942;2023-08-06T13:26:35;6.35;;;1.65;;
33672;SDS011;20011;51.510;9.942;2023-08-06T13:29:02;11.40;;;2.08;;
33672;SDS011;20011;51.510;9.942;2023-08-06T13:31:29;2.78;;;1.60;;
33672;SDS011;20011;51.510;9.942;2023-08-06T13:33:56;2.00;;;1.65;;
33672;SDS011;20011;51.510;9.942;2023-08-06T13:36:26;2.95;;;1.60;;
33672;SDS011;20011;51.510;9.942;2023-08-06T13:38:53;5.07;;;1.98;;
33672;SDS011;20011;51.510;9.942;2023-08-06T13:41:20;5.90;;;2.00;;
33672;SDS011;20011;51.510;9.942;2023-08-06T13:43:47;10.07;;;3.45;;
33672;SDS011;20011;51.510;9.942;2023-08-06T13:46:14;8.55;;;2.85;;
33672;SDS011;20011;51.510;9.942;2023-08-06T13:48:44;7.55;;;2.83;;
33672;SDS011;20011;51.510;9.942;2023-08-06T13:51:13;6.32;;;2.47;;
33672;SDS011;20011;51.510;9.942;2023-08-06T13:53:40;5.68;;;2.55;;
33672;SDS011;20011;51.510;9.942;2023-08-06T13:56:08;5.30;;;2.30;;
33672;SDS011;20011;51.510;9.942;2023-08-06T13:58:41;5.72;;;2.17;;
33672;SDS011;20011;51.510;9.942;2023-08-06T14:01:09;4.75;;;2.28;;
33672;SDS011;20011;51.510;9.942;2023-08-06T14:03:37;3.40;;;1.98;;
33672;SDS011;20011;51.510;9.942;2023-08-06T14:06:04;4.93;;;1.73;;
33672;SDS011;20011;51.510;9.942;2023-08-06T14:08:31;6.70;;;2.05;;
33672;SDS011;20011;51.510;9.942;2023-08-06T14:10:58;7.25;;;2.17;;
33672;SDS011;20011;51.510;9.942;2023-08-06T14:13:25;6.13;;;1.85;;
33672;SDS011;20011;51.510;9.942;2023-08-06T14:15:52;6.82;;;2.17;;
33672;SDS011;20011;51.510;9.942;2023-08-06T14:18:19;5.47;;;2.35;;
33672;SDS011;20011;51.510;9.942;2023-08-06T14:20:46;3.05;;;2.10;;
33672;SDS011;20011;51.510;9.942;2023-08-06T14:23:12;4.57;;;2.22;;
33672;SDS011;20011;51.510;9.942;2023-08-06T14:25:39;4.35;;;2.63;;
33672;SDS011;20011;51.510;9.942;2023-08-06T14:28:06;4.18;;;2.10;;
33672;SDS011;20011;51.510;9.942;2023-08-06T14:30:34;5.90;;;2.42;;
33672;SDS011;20011;51.510;9.942;2023-08-06T14:33:01;3.03;;;2.03;;
33672;SDS011;20011;51.510;9.942;2023-08-06T14:35:46;4.15;;;1.92;;
33672;SDS011;20011;51.510;9.942;2023-08-06T14:38:13;4.20;;;2.40;;
33672;SDS011;20011;51.510;9.942;2023-08-06T14:40:40;6.80;;;1.88;;
33672;SDS011;20011;51.510;9.942;2023-08-06T14:43:09;7.97;;;2.30;;
33672;SDS011;20011;51.510;9.942;2023-08-06T14:48:06;3.85;;;1.92;;
33672;SDS011;20011;51.510;9.942;2023-08-06T14:50:33;3.03;;;2.30;;
33672;SDS011;20011;51.510;9.942;2023-08-06T14:53:01;4.28;;;1.80;;
33672;SDS011;20011;51.510;9.942;2023-08-06T14:55:31;2.67;;;1.85;;
33672;SDS011;20011;51.510;9.942;2023-08-06T14:58:00;6.25;;;2.70;;
33672;SDS011;20011;51.510;9.942;2023-08-06T15:00:27;6.45;;;2.42;;
33672;SDS011;20011;51.510;9.942;2023-08-06T15:02:55;3.58;;;2.20;;
33672;SDS011;20011;51.510;9.942;2023-08-06T15:05:21;6.13;;;2.28;;
33672;SDS011;20011;51.510;9.942;2023-08-06T15:07:49;5.05;;;2.13;;
33672;SDS011;20011;51.510;9.942;2023-08-06T15:10:16;4.82;;;1.88;;
33672;SDS011;20011;51.510;9.942;2023-08-06T15:12:46;3.70;;;1.38;;
33672;SDS011;20011;51.510;9.942;2023-08-06T15:15:13;4.13;;;1.67;;
33672;SDS011;20011;51.510;9.942;2023-08-06T15:17:40;2.40;;;1.52;;
33672;SDS011;20011;51.510;9.942;2023-08-06T15:20:07;3.22;;;1.55;;
33672;SDS011;20011;51.510;9.942;2023-08-06T15:22:34;5.25;;;1.40;;
33672;SDS011;20011;51.510;9.942;2023-08-06T15:25:02;4.72;;;1.45;;
33672;SDS011;20011;51.510;9.942;2023-08-06T15:27:31;2.40;;;1.63;;
33672;SDS011;20011;51.510;9.942;2023-08-06T15:29:59;3.30;;;1.48;;